Time;durP1;ratioP1;P1;durP2;ratioP2;P2;SDS_P1;SDS_P2;PMS_P1;PMS_P2;Temp;Humidity;BMP_temperature;BMP_pressure;BME280_temperature;BME280_humidity;BME280_pressure;Samples;Min_cycle;Max_cycle;Signal;HPM_P1;HPM_P2
2023/03/07 00:02:07;;;;;;;;;;;;;;;16.37;40.83;92075.16;5028714;28;19928;-87
2023/03/07 00:04:32;;;;;;;;;;;;;;;16.37;41.24;92077.88;5045596;28;19929;-87
2023/03/07 00:06:58;;;;;;;;;;;;;;;16.36;40.97;92068.22;5041152;28;19924;-87
2023/03/07 00:09:23;;;;;;;;;;;;;;;16.37;41.34;92069.69;5059646;28;19955;-86
2023/03/07 00:11:49;;;;;;;;;;;;;;;16.38;41.17;92067.69;5051459;28;20334;-87
2023/03/07 00:14:14;;;;;;;;;;;;;;;16.39;40.96;92080.81;5031897;28;19924;-87
2023/03/07 00:16:39;;;;;;;;;;;;;;;16.41;41.14;92055.72;5025620;28;19928;-87
2023/03/07 00:19:06;;;;;;;;;;;;;;;16.40;41.27;92065.91;5047386;28;19973;-87
2023/03/07 00:21:32;;;;;;;;;;;;;;;16.40;41.17;92078.81;5054396;28;19929;-87
2023/03/07 00:23:57;;;;;;;;;;;;;;;16.41;41.27;92066.66;5034949;28;20279;-88
2023/03/07 00:26:23;;;;;;;;;;;;;;;16.40;41.09;92057.72;5042622;28;19977;-87
2023/03/07 00:28:48;;;;;;;;;;;;;;;16.41;41.12;92061.19;5025926;28;20141;-87
2023/03/07 00:31:14;;;;;;;;;;;;;;;16.40;41.09;92057.72;5031585;28;19925;-86
2023/03/07 00:33:39;;;;;;;;;;;;;;;16.40;41.12;92060.47;5030611;28;19935;-87
2023/03/07 00:36:07;;;;;;;;;;;;;;;16.41;41.13;92050.28;5030095;28;19931;-87
2023/03/07 00:38:32;;;;;;;;;;;;;;;16.39;41.13;92039.16;5036104;28;19932;-88
2023/03/07 00:41:00;;;;;;;;;;;;;;;16.39;40.96;92058.25;5035500;28;19924;-88
2023/03/07 00:43:26;;;;;;;;;;;;;;;16.37;40.96;92055.31;5046764;28;19936;-87
2023/03/07 00:45:51;;;;;;;;;;;;;;;16.38;41.04;92046.63;5048586;28;20127;-86
2023/03/07 00:48:17;;;;;;;;;;;;;;;16.37;41.56;92036.97;5045778;28;19960;-87
2023/03/07 00:50:42;;;;;;;;;;;;;;;16.40;41.09;92032.44;5051646;28;19921;-87
2023/03/07 00:53:07;;;;;;;;;;;;;;;16.39;41.73;92031.72;5041348;28;19929;-87
2023/03/07 00:55:33;;;;;;;;;;;;;;;16.40;41.69;92030.47;5049787;28;19978;-87
2023/03/07 00:57:58;;;;;;;;;;;;;;;16.39;41.53;92026.25;5037330;28;20019;-87
2023/03/07 01:00:23;;;;;;;;;;;;;;;16.41;41.21;92028.47;5031267;28;19920;-88
2023/03/07 01:02:49;;;;;;;;;;;;;;;16.40;41.42;92022.28;5046037;28;19924;-87
2023/03/07 01:05:14;;;;;;;;;;;;;;;16.41;41.14;92014.81;5051012;28;20368;-87
2023/03/07 01:07:40;;;;;;;;;;;;;;;16.40;41.03;92014.09;5023682;28;20016;-87
2023/03/07 01:10:05;;;;;;;;;;;;;;;16.40;41.40;92007.91;5049242;28;19929;-86
2023/03/07 01:12:30;;;;;;;;;;;;;;;16.36;41.22;92002.03;5033232;28;19931;-87
2023/03/07 01:14:56;;;;;;;;;;;;;;;16.38;41.37;92011.16;5031414;28;20386;-87
2023/03/07 01:17:21;;;;;;;;;;;;;;;16.39;41.15;92007.16;5042605;28;19925;-87
2023/03/07 01:19:46;;;;;;;;;;;;;;;16.39;41.54;91998.25;5027498;28;19924;-88
2023/03/07 01:22:11;;;;;;;;;;;;;;;16.39;41.33;91990.81;5042752;28;19929;-87
2023/03/07 01:24:37;;;;;;;;;;;;;;;16.40;40.99;91997.00;5055944;28;20448;-87
2023/03/07 01:27:03;;;;;;;;;;;;;;;16.39;41.15;91992.81;5028354;28;20323;-86
2023/03/07 01:29:28;;;;;;;;;;;;;;;16.40;41.38;91991.53;5043977;28;19959;-87
2023/03/07 01:31:53;;;;;;;;;;;;;;;16.40;41.41;91994.28;5030092;28;20334;-87
2023/03/07 01:34:18;;;;;;;;;;;;;;;16.39;41.17;91999.00;5066424;28;19924;-87
2023/03/07 01:36:44;;;;;;;;;;;;;;;16.41;41.20;91987.56;5031793;28;19925;-86
2023/03/07 01:39:12;;;;;;;;;;;;;;;16.42;41.11;91986.28;5045442;28;19929;-88
2023/03/07 01:41:38;;;;;;;;;;;;;;;16.39;41.17;91979.91;5051063;28;19940;-87
2023/03/07 01:44:04;;;;;;;;;;;;;;;16.38;41.23;91978.44;5049036;28;19929;-86
2023/03/07 01:46:37;;;;;;;;;;;;;;;16.39;41.61;91979.16;5032070;28;19929;-87
2023/03/07 01:49:20;;;;;;;;;;;;;;;16.38;41.21;91978.44;5020275;28;19925;-86
2023/03/07 01:51:47;;;;;;;;;;;;;;;16.38;41.30;91975.72;5028018;28;19933;-86
2023/03/07 01:54:12;;;;;;;;;;;;;;;16.36;41.19;91982.94;5021765;28;19929;-87
2023/03/07 01:56:37;;;;;;;;;;;;;;;16.36;41.17;91972.03;5030971;28;19932;-87
2023/03/07 01:59:03;;;;;;;;;;;;;;;16.35;41.60;91965.84;5028816;28;19971;-87
2023/03/07 02:01:28;;;;;;;;;;;;;;;16.35;41.64;91965.13;5033502;28;19928;-87
2023/03/07 02:03:53;;;;;;;;;;;;;;;16.36;42.04;91958.41;5050059;28;19932;-88
2023/03/07 02:06:18;;;;;;;;;;;;;;;16.37;41.47;91951.69;5048921;28;19977;-87
2023/03/07 02:08:44;;;;;;;;;;;;;;;16.39;41.44;91960.06;5044916;28;19929;-87
2023/03/07 02:11:09;;;;;;;;;;;;;;;16.37;41.58;91952.44;5046058;28;20289;-86
2023/03/07 02:13:35;;;;;;;;;;;;;;;16.38;41.70;91951.16;5050749;28;19924;-89
2023/03/07 02:16:00;;;;;;;;;;;;;;;16.38;41.62;91942.97;5068863;28;20352;-88
2023/03/07 02:18:26;;;;;;;;;;;;;;;16.38;41.61;91936.78;5057137;28;19951;-87
2023/03/07 02:21:08;;;;;;;;;;;;;;;16.35;41.26;91941.31;5070055;28;19922;-87
2023/03/07 02:23:42;;;;;;;;;;;;;;;16.38;41.60;91937.53;5070774;28;19994;-87
2023/03/07 02:26:07;;;;;;;;;;;;;;;16.36;41.71;91937.31;5092063;28;19924;-86
2023/03/07 02:28:33;;;;;;;;;;;;;;;16.37;41.53;91938.06;5055033;28;20023;-88
2023/03/07 02:30:59;;;;;;;;;;;;;;;16.37;41.48;91940.78;5069796;28;19920;-87
2023/03/07 02:33:24;;;;;;;;;;;;;;;16.38;41.30;91939.53;5051474;28;19928;-87
2023/03/07 02:35:54;;;;;;;;;;;;;;;16.37;41.46;91938.78;5069564;28;19924;-86
2023/03/07 02:38:19;;;;;;;;;;;;;;;16.36;41.55;91931.88;5045690;28;19924;-87
2023/03/07 02:40:44;;;;;;;;;;;;;;;16.37;41.40;91929.88;5072256;28;19920;-87
2023/03/07 02:43:10;;;;;;;;;;;;;;;16.36;41.37;91940.06;5051554;28;20010;-87
2023/03/07 02:45:35;;;;;;;;;;;;;;;16.36;41.56;91934.59;5063726;28;19920;-87
2023/03/07 02:48:00;;;;;;;;;;;;;;;16.36;41.29;91937.31;5044664;28;19956;-87
2023/03/07 02:50:25;;;;;;;;;;;;;;;16.38;41.57;91939.53;5033066;28;19920;-87
2023/03/07 02:52:51;;;;;;;;;;;;;;;16.36;41.70;91945.50;5046334;28;19928;-90
2023/03/07 02:55:16;;;;;;;;;;;;;;;16.37;41.92;91935.34;5080384;28;20361;-87
2023/03/07 02:57:41;;;;;;;;;;;;;;;16.39;41.28;91941.72;5050858;28;19924;-87
2023/03/07 03:00:09;;;;;;;;;;;;;;;16.38;41.61;91940.25;5060926;28;19920;-87
2023/03/07 03:02:34;;;;;;;;;;;;;;;16.38;41.53;91932.06;5044989;28;20309;-87
2023/03/07 03:05:00;;;;;;;;;;;;;;;16.37;41.64;91938.78;5068605;28;19924;-86
2023/03/07 03:07:25;;;;;;;;;;;;;;;16.37;41.66;91933.34;5063270;28;20024;-88
2023/03/07 03:09:50;;;;;;;;;;;;;;;16.37;41.23;91938.78;5040090;28;19924;-87
2023/03/07 03:12:15;;;;;;;;;;;;;;;16.35;41.51;91941.31;5059671;28;20416;-88
2023/03/07 03:14:40;;;;;;;;;;;;;;;16.36;41.54;91928.41;5066867;28;19920;-86
2023/03/07 03:17:06;;;;;;;;;;;;;;;16.36;41.82;91925.69;5066315;28;19921;-88
2023/03/07 03:19:31;;;;;;;;;;;;;;;16.37;41.61;91933.34;5043100;28;20446;-87
2023/03/07 03:21:56;;;;;;;;;;;;;;;16.36;41.64;91928.41;5046620;28;19966;-87
2023/03/07 03:24:21;;;;;;;;;;;;;;;16.37;41.34;91924.41;5047913;28;19932;-87
2023/03/07 03:26:49;;;;;;;;;;;;;;;16.35;41.45;91927.69;5068294;28;19931;-87
2023/03/07 03:29:14;;;;;;;;;;;;;;;16.36;41.48;91922.97;5052858;28;20293;-86
2023/03/07 03:31:39;;;;;;;;;;;;;;;16.37;41.73;91919.69;5057105;28;19924;-87
2023/03/07 03:34:04;;;;;;;;;;;;;;;16.36;41.46;91917.50;5062635;28;20292;-86
2023/03/07 03:36:30;;;;;;;;;;;;;;;16.35;41.45;91916.78;5068575;28;20054;-86
2023/03/07 03:38:55;;;;;;;;;;;;;;;16.35;41.28;91921.50;5062808;28;19971;-89
2023/03/07 03:41:20;;;;;;;;;;;;;;;16.36;42.17;91920.22;5056024;28;19928;-86
2023/03/07 03:43:46;;;;;;;;;;;;;;;16.36;41.55;91918.25;5046117;28;19931;-87
2023/03/07 03:46:11;;;;;;;;;;;;;;;16.35;41.42;91924.97;5071718;28;20377;-87
2023/03/07 03:48:36;;;;;;;;;;;;;;;16.34;41.80;91914.56;5049074;28;19928;-87
2023/03/07 03:51:03;;;;;;;;;;;;;;;16.34;41.06;91920.03;5041551;28;19927;-87
2023/03/07 03:53:29;;;;;;;;;;;;;;;16.26;38.89;91919.22;5063259;28;19928;-87
2023/03/07 03:55:59;;;;;;;;;;;;;;;16.22;40.78;91899.75;5044202;28;19931;-86
2023/03/07 03:58:25;;;;;;;;;;;;;;;16.25;40.18;91910.31;5040565;28;19962;-87
2023/03/07 04:00:51;;;;;;;;;;;;;;;16.26;40.26;91908.31;5063662;28;19983;-87
2023/03/07 04:03:18;;;;;;;;;;;;;;;16.27;40.62;91917.97;5082774;28;20202;-87
2023/03/07 04:05:43;;;;;;;;;;;;;;;16.25;41.15;91913.03;5050657;28;19928;-88
2023/03/07 04:08:09;;;;;;;;;;;;;;;16.29;40.86;91912.72;5058885;28;20027;-86
2023/03/07 04:10:34;;;;;;;;;;;;;;;16.29;40.89;91908.00;5071745;28;19934;-87
2023/03/07 04:13:00;;;;;;;;;;;;;;;16.30;41.04;91912.19;5074994;28;19924;-87
2023/03/07 04:15:25;;;;;;;;;;;;;;;16.32;41.23;91909.66;5067433;28;20525;-88
2023/03/07 04:17:50;;;;;;;;;;;;;;;16.30;41.09;91916.91;5067880;28;19924;-86
2023/03/07 04:20:16;;;;;;;;;;;;;;;16.32;41.10;91914.38;5074676;28;19946;-86
2023/03/07 04:22:41;;;;;;;;;;;;;;;16.32;41.07;91906.19;5070344;28;19920;-87
2023/03/07 04:25:06;;;;;;;;;;;;;;;16.30;40.95;91909.44;5057140;28;19928;-87
2023/03/07 04:27:34;;;;;;;;;;;;;;;16.30;40.84;91917.63;5058531;28;19924;-86
2023/03/07 04:29:59;;;;;;;;;;;;;;;16.32;40.83;91911.66;5075310;28;19950;-86
2023/03/07 04:32:24;;;;;;;;;;;;;;;16.32;41.16;91911.66;5092785;28;19939;-87
2023/03/07 04:34:50;;;;;;;;;;;;;;;16.32;41.06;91901.47;5057454;28;19931;-87
2023/03/07 04:37:17;;;;;;;;;;;;;;;16.29;40.83;91908.00;5070996;28;19951;-88
2023/03/07 04:39:42;;;;;;;;;;;;;;;16.30;41.06;91897.81;5058377;28;19935;-85
2023/03/07 04:42:07;;;;;;;;;;;;;;;16.29;41.14;91904.53;5086617;28;20372;-84
2023/03/07 04:44:32;;;;;;;;;;;;;;;16.32;41.23;91900.75;5066821;28;20037;-85
2023/03/07 04:46:58;;;;;;;;;;;;;;;16.31;41.19;91900.00;5057198;28;19970;-84
2023/03/07 04:49:23;;;;;;;;;;;;;;;16.31;41.19;91891.84;5073139;28;20393;-84
2023/03/07 04:51:49;;;;;;;;;;;;;;;16.32;40.94;91898.00;5071724;28;20293;-84
2023/03/07 04:54:14;;;;;;;;;;;;;;;16.32;40.88;91892.56;5087278;28;20385;-84
2023/03/07 04:56:39;;;;;;;;;;;;;;;16.33;40.97;91902.22;5089157;28;19991;-85
2023/03/07 04:59:05;;;;;;;;;;;;;;;16.33;41.18;91908.41;5077972;28;19978;-87
2023/03/07 05:01:30;;;;;;;;;;;;;;;16.34;41.32;91904.41;5064077;28;19934;-85
2023/03/07 05:03:56;;;;;;;;;;;;;;;16.34;41.19;91903.66;5068467;28;20369;-84
2023/03/07 05:06:21;;;;;;;;;;;;;;;16.35;41.06;91907.84;5073689;28;19921;-85
2023/03/07 05:08:47;;;;;;;;;;;;;;;16.36;41.00;91896.41;5056749;28;19951;-89
2023/03/07 05:11:12;;;;;;;;;;;;;;;16.35;40.96;91905.13;5092439;28;19924;-87
2023/03/07 05:13:37;;;;;;;;;;;;;;;16.35;40.98;91897.69;5072494;28;19982;-87
2023/03/07 05:16:02;;;;;;;;;;;;;;;16.35;41.04;91900.41;5054026;28;20011;-86
2023/03/07 05:18:28;;;;;;;;;;;;;;;16.35;41.18;91894.97;5060262;28;19928;-84
2023/03/07 05:20:53;;;;;;;;;;;;;;;16.36;41.27;91899.16;5056969;28;19921;-86
2023/03/07 05:23:18;;;;;;;;;;;;;;;16.37;42.23;91895.16;5067460;28;19932;-85
2023/03/07 05:25:45;;;;;;;;;;;;;;;16.35;42.24;91896.94;5090538;28;19931;-87
2023/03/07 05:28:10;;;;;;;;;;;;;;;16.35;41.52;91892.22;5049559;28;19928;-84
2023/03/07 05:30:36;;;;;;;;;;;;;;;16.36;42.69;91893.69;5064915;28;19935;-85
2023/03/07 05:33:01;;;;;;;;;;;;;;;16.38;41.66;91890.44;5050071;28;19932;-86
2023/03/07 05:35:26;;;;;;;;;;;;;;;16.41;41.94;91889.38;5053437;28;20527;-85
2023/03/07 05:37:51;;;;;;;;;;;;;;;16.44;42.32;91882.84;5068758;28;19924;-86
2023/03/07 05:40:17;;;;;;;;;;;;;;;16.46;41.91;91883.03;5042709;28;20217;-85
2023/03/07 05:42:42;;;;;;;;;;;;;;;16.50;42.02;91885.41;5062688;28;19991;-87
2023/03/07 05:45:08;;;;;;;;;;;;;;;16.51;41.20;91895.06;5072001;28;20581;-85
2023/03/07 05:47:33;;;;;;;;;;;;;;;16.51;41.34;91884.88;5054469;28;19931;-88
2023/03/07 05:49:58;;;;;;;;;;;;;;;16.48;41.08;91885.94;5062232;28;19932;-86
2023/03/07 05:52:24;;;;;;;;;;;;;;;16.34;39.72;91890.03;5061437;28;19990;-90
2023/03/07 05:54:49;;;;;;;;;;;;;;;16.31;40.22;91880.94;5058114;28;20006;-89
2023/03/07 05:57:15;;;;;;;;;;;;;;;16.29;39.41;91875.28;5043864;28;19946;-88
2023/03/07 05:59:40;;;;;;;;;;;;;;;16.28;39.52;91881.25;5066861;28;19949;-86
2023/03/07 06:02:06;;;;;;;;;;;;;;;16.28;40.01;91894.88;5070162;28;20207;-86
2023/03/07 06:04:31;;;;;;;;;;;;;;;16.30;39.82;91890.38;5061145;28;20053;-87
2023/03/07 06:06:58;;;;;;;;;;;;;;;16.30;39.99;91876.72;5068999;28;19920;-87
2023/03/07 06:09:24;;;;;;;;;;;;;;;16.29;40.15;91888.91;5062790;28;19928;-87
2023/03/07 06:11:50;;;;;;;;;;;;;;;16.34;40.55;91885.31;5058110;28;20058;-88
2023/03/07 06:14:15;;;;;;;;;;;;;;;16.35;40.77;91888.78;5064642;28;20018;-88
2023/03/07 06:16:40;;;;;;;;;;;;;;;16.24;39.12;91886.34;5051624;28;19928;-87
2023/03/07 06:19:08;;;;;;;;;;;;;;;16.24;39.74;91894.50;5085655;28;19954;-89
2023/03/07 06:21:34;;;;;;;;;;;;;;;16.28;39.68;91894.88;5059221;28;19924;-88
2023/03/07 06:23:59;;;;;;;;;;;;;;;16.18;38.12;91896.63;5067131;28;19932;-86
2023/03/07 06:26:24;;;;;;;;;;;;;;;16.04;35.96;91895.97;5043958;28;19935;-86
2023/03/07 06:28:50;;;;;;;;;;;;;;;15.90;36.86;91898.03;5047305;28;19931;-87
2023/03/07 06:31:16;;;;;;;;;;;;;;;15.87;35.75;91904.53;5043659;28;19929;-86
2023/03/07 06:33:43;;;;;;;;;;;;;;;15.81;35.14;91901.19;5062430;28;19934;-88
2023/03/07 06:36:11;;;;;;;;;;;;;;;15.84;35.96;91902.13;5049121;28;19924;-89
2023/03/07 06:38:37;;;;;;;;;;;;;;;15.87;35.69;91899.06;5043517;28;19951;-89
2023/03/07 06:41:03;;;;;;;;;;;;;;;15.94;36.79;91892.25;5049404;28;19923;-87
2023/03/07 06:43:29;;;;;;;;;;;;;;;16.00;37.24;91906.47;5044287;28;19928;-87
2023/03/07 06:45:54;;;;;;;;;;;;;;;16.05;37.12;91908.31;5065701;28;19963;-87
2023/03/07 06:48:21;;;;;;;;;;;;;;;16.08;38.01;91901.81;5051494;28;19990;-86
2023/03/07 06:50:46;;;;;;;;;;;;;;;16.11;38.37;91909.66;5068285;28;19928;-86
2023/03/07 06:53:11;;;;;;;;;;;;;;;16.16;38.61;91915.53;5069258;28;19920;-86
2023/03/07 06:55:37;;;;;;;;;;;;;;;16.16;38.66;91918.25;5077722;28;19924;-87
2023/03/07 06:58:02;;;;;;;;;;;;;;;16.18;38.39;91924.63;5050021;28;19924;-88
2023/03/07 07:00:27;;;;;;;;;;;;;;;16.14;37.46;91921.50;5086015;28;19932;-89
2023/03/07 07:02:54;;;;;;;;;;;;;;;16.09;37.52;91923.09;5053485;28;19924;-88
2023/03/07 07:05:20;;;;;;;;;;;;;;;16.15;38.10;91920.25;5086477;28;19928;-88
2023/03/07 07:07:45;;;;;;;;;;;;;;;16.18;38.05;91926.63;5063649;28;19960;-88
2023/03/07 07:10:11;;;;;;;;;;;;;;;16.22;38.46;91930.50;5033723;28;20377;-87
2023/03/07 07:12:36;;;;;;;;;;;;;;;16.26;38.81;91917.22;5051868;28;19947;-89
2023/03/07 07:15:04;;;;;;;;;;;;;;;16.29;38.71;91926.34;5027054;28;19931;-89
2023/03/07 07:17:29;;;;;;;;;;;;;;;16.29;38.98;91924.34;5042311;28;19929;-86
2023/03/07 07:19:55;;;;;;;;;;;;;;;16.31;38.86;91943.63;5040495;28;19925;-86
2023/03/07 07:22:22;;;;;;;;;;;;;;;16.31;38.67;91937.44;5036323;28;20012;-88
2023/03/07 07:24:49;;;;;;;;;;;;;;;16.31;38.22;91934.72;5032719;28;20266;-87
2023/03/07 07:27:15;;;;;;;;;;;;;;;16.31;38.47;91938.19;5038049;28;19948;-86
2023/03/07 07:29:40;;;;;;;;;;;;;;;16.31;38.51;91935.47;5074952;28;19932;-88
2023/03/07 07:32:06;;;;;;;;;;;;;;;16.35;38.44;91935.88;5070418;28;20007;-88
2023/03/07 07:34:32;;;;;;;;;;;;;;;16.31;38.48;91937.44;5060090;28;19939;-87
2023/03/07 07:36:57;;;;;;;;;;;;;;;16.29;38.55;91940.72;5057613;28;20367;-86
2023/03/07 07:39:23;;;;;;;;;;;;;;;16.31;38.27;91932.72;5044220;28;19936;-87
2023/03/07 07:41:48;;;;;;;;;;;;;;;16.32;38.33;91938.91;5033803;28;19943;-84
2023/03/07 07:44:13;;;;;;;;;;;;;;;16.33;38.32;91943.09;5041566;28;20464;-84
2023/03/07 07:46:39;;;;;;;;;;;;;;;16.34;38.19;91945.31;5037074;28;19928;-86
2023/03/07 07:49:04;;;;;;;;;;;;;;;16.33;39.14;91949.28;5039251;28;19939;-85
2023/03/07 07:51:29;;;;;;;;;;;;;;;16.34;38.11;91939.84;5042147;28;20464;-86
2023/03/07 07:53:55;;;;;;;;;;;;;;;16.37;38.29;91940.78;5050692;28;20019;-86
2023/03/07 07:56:20;;;;;;;;;;;;;;;16.38;38.36;91942.25;5023503;28;19963;-86
2023/03/07 07:58:45;;;;;;;;;;;;;;;16.40;38.46;91935.00;5044389;28;19928;-88
2023/03/07 08:01:11;;;;;;;;;;;;;;;16.40;38.68;91928.81;5024872;28;20028;-86
2023/03/07 08:03:37;;;;;;;;;;;;;;;16.40;38.81;91931.53;5027609;28;19931;-86
2023/03/07 08:06:02;;;;;;;;;;;;;;;16.39;39.22;91925.34;5066723;28;19928;-87
2023/03/07 08:08:27;;;;;;;;;;;;;;;16.40;39.04;91926.81;5042268;28;20453;-89
2023/03/07 08:10:52;;;;;;;;;;;;;;;16.42;38.30;91934.47;5048582;28;19935;-89
2023/03/07 08:13:19;;;;;;;;;;;;;;;16.45;38.29;91931.38;5052217;28;20285;-91
2023/03/07 08:15:44;;;;;;;;;;;;;;;16.48;38.58;91939.78;5064938;28;19924;-85
2023/03/07 08:18:11;;;;;;;;;;;;;;;16.48;38.32;91939.78;5049120;28;19931;-87
2023/03/07 08:20:36;;;;;;;;;;;;;;;16.46;38.68;91932.13;5065722;28;19973;-85
2023/03/07 08:23:02;;;;;;;;;;;;;;;16.43;38.56;91935.94;5033130;28;19924;-86
2023/03/07 08:25:28;;;;;;;;;;;;;;;16.46;38.46;91937.56;5066530;28;19955;-87
2023/03/07 08:27:55;;;;;;;;;;;;;;;16.46;38.57;91932.84;5058032;28;19928;-87
2023/03/07 08:30:23;;;;;;;;;;;;;;;16.44;38.93;91931.94;5070940;28;19999;-87
2023/03/07 08:32:50;;;;;;;;;;;;;;;16.48;39.18;91926.88;5076874;28;19924;-86
2023/03/07 08:35:17;;;;;;;;;;;;;;;16.48;39.33;91929.59;5070705;28;19994;-89
2023/03/07 08:37:44;;;;;;;;;;;;;;;16.48;38.95;91935.03;5069323;28;19975;-85
2023/03/07 08:40:18;;;;;;;;;;;;;;;16.50;38.98;91934.50;5068124;28;19928;-87
2023/03/07 08:42:45;;;;;;;;;;;;;;;16.53;38.70;91936.19;5071914;28;19925;-86
2023/03/07 08:45:10;;;;;;;;;;;;;;;16.50;38.49;91927.06;5088325;28;19935;-87
2023/03/07 08:47:35;;;;;;;;;;;;;;;16.47;38.36;91925.41;5058228;28;19924;-88
2023/03/07 08:50:01;;;;;;;;;;;;;;;16.42;37.97;91932.47;5055611;28;20019;-89
2023/03/07 08:52:26;;;;;;;;;;;;;;;16.40;38.62;91931.53;5087135;28;20296;-88
2023/03/07 08:54:51;;;;;;;;;;;;;;;16.42;38.67;91929.75;5063895;28;19983;-88
2023/03/07 08:57:17;;;;;;;;;;;;;;;16.45;38.42;91931.38;5073379;28;19928;-87
2023/03/07 08:59:42;;;;;;;;;;;;;;;16.44;38.55;91926.50;5045254;28;19931;-85
2023/03/07 09:02:09;;;;;;;;;;;;;;;16.45;38.77;91925.22;5049213;28;20381;-87
2023/03/07 09:04:34;;;;;;;;;;;;;;;16.48;38.43;91929.59;5077960;28;19921;-86
2023/03/07 09:06:59;;;;;;;;;;;;;;;16.49;38.89;91919.41;5069695;28;20027;-87
2023/03/07 09:09:25;;;;;;;;;;;;;;;16.52;38.72;91919.06;5055471;28;20019;-85
2023/03/07 09:11:50;;;;;;;;;;;;;;;16.52;38.64;91910.91;5054760;28;19936;-85
2023/03/07 09:14:15;;;;;;;;;;;;;;;16.54;38.51;91915.81;5056201;28;19959;-85
2023/03/07 09:16:40;;;;;;;;;;;;;;;16.51;38.84;91909.44;5072500;28;19955;-85
2023/03/07 09:19:06;;;;;;;;;;;;;;;16.53;38.93;91912.34;5059594;28;19925;-86
2023/03/07 09:21:31;;;;;;;;;;;;;;;16.54;38.69;91902.91;5094868;28;20181;-86
2023/03/07 09:23:56;;;;;;;;;;;;;;;16.56;38.43;91913.28;5079114;28;19930;-85
2023/03/07 09:26:22;;;;;;;;;;;;;;;16.55;38.99;91920.00;5072530;28;19943;-91
2023/03/07 09:28:48;;;;;;;;;;;;;;;16.58;38.86;91922.41;5067325;28;19921;-86
2023/03/07 09:31:14;;;;;;;;;;;;;;;16.59;39.06;91915.69;5049751;28;19982;-89
2023/03/07 09:33:46;;;;;;;;;;;;;;;16.60;38.70;91917.16;5055768;28;19932;-89
2023/03/07 09:36:11;;;;;;;;;;;;;;;16.61;38.98;91926.78;5074036;28;20372;-88
2023/03/07 09:38:36;;;;;;;;;;;;;;;16.63;39.11;91918.06;5053748;28;19979;-89
2023/03/07 09:41:08;;;;;;;;;;;;;;;16.61;39.10;91918.59;5058221;28;19929;-86
2023/03/07 09:43:41;;;;;;;;;;;;;;;16.60;39.03;91911.69;5080976;28;19975;-87
2023/03/07 09:46:07;;;;;;;;;;;;;;;16.61;39.03;91904.97;5055476;28;20588;-88
2023/03/07 09:48:41;;;;;;;;;;;;;;;16.62;39.11;91905.69;5063991;28;19920;-88
2023/03/07 09:51:17;;;;;;;;;;;;;;;16.62;39.10;91902.97;5079749;28;19927;-86
2023/03/07 09:53:44;;;;;;;;;;;;;;;16.62;38.69;91911.88;5049333;28;19928;-88
2023/03/07 09:56:14;;;;;;;;;;;;;;;16.65;38.98;91901.94;5045439;28;19935;-86
2023/03/07 09:58:41;;;;;;;;;;;;;;;16.64;39.05;91886.84;5074456;28;19931;-88
2023/03/07 10:01:09;;;;;;;;;;;;;;;16.65;39.27;91883.56;5050557;28;19927;-86
2023/03/07 10:03:53;;;;;;;;;;;;;;;16.65;39.14;91888.28;5064656;28;19931;-85
2023/03/07 10:06:18;;;;;;;;;;;;;;;16.64;38.91;91884.84;5066064;28;19931;-87
2023/03/07 10:08:44;;;;;;;;;;;;;;;16.63;39.17;91877.91;5084062;28;19924;-91
2023/03/07 10:11:28;;;;;;;;;;;;;;;16.65;39.25;91871.94;5044909;28;19971;-89
2023/03/07 10:14:12;;;;;;;;;;;;;;;16.66;39.27;91874.13;5027048;28;19964;-87
2023/03/07 10:16:38;;;;;;;;;;;;;;;16.69;39.18;91869.56;5079369;28;19927;-87
2023/03/07 10:19:13;;;;;;;;;;;;;;;16.66;38.83;91870.66;5071459;28;19921;-88
2023/03/07 10:21:39;;;;;;;;;;;;;;;16.64;38.65;91854.09;5060041;28;19931;-89
2023/03/07 10:24:10;;;;;;;;;;;;;;;16.65;38.62;91861.00;5056365;28;19920;-87
2023/03/07 10:26:39;;;;;;;;;;;;;;;16.66;39.03;91857.00;5061604;28;19940;-86
2023/03/07 10:29:17;;;;;;;;;;;;;;;16.69;39.30;91850.47;5062284;28;19922;-88
2023/03/07 10:31:55;;;;;;;;;;;;;;;16.66;39.23;91852.28;5082132;28;19998;-87
2023/03/07 10:34:27;;;;;;;;;;;;;;;16.67;39.67;91855.75;5070970;28;19920;-88
2023/03/07 10:36:59;;;;;;;;;;;;;;;16.67;39.29;91847.56;5060458;28;19934;-88
2023/03/07 10:39:35;;;;;;;;;;;;;;;16.69;39.74;91845.00;5068859;28;20011;-87
2023/03/07 10:42:00;;;;;;;;;;;;;;;16.68;39.46;91846.28;5071322;28;19928;-88
2023/03/07 10:44:26;;;;;;;;;;;;;;;16.66;39.33;91841.38;5074760;28;20209;-89
2023/03/07 10:46:54;;;;;;;;;;;;;;;16.68;39.34;91832.63;5075431;28;19928;-89
2023/03/07 10:49:33;;;;;;;;;;;;;;;16.68;39.71;91827.16;5048524;28;19963;-88
2023/03/07 10:52:16;;;;;;;;;;;;;;;16.68;39.71;91822.44;5055385;28;19928;-90
2023/03/07 10:54:42;;;;;;;;;;;;;;;16.64;37.32;91827.53;5072578;28;19927;-89
2023/03/07 10:57:07;;;;;;;;;;;;;;;16.51;36.94;91824.16;5073116;28;19925;-87
2023/03/07 10:59:33;;;;;;;;;;;;;;;16.50;37.26;91817.22;5080666;28;19921;-87
2023/03/07 11:01:59;;;;;;;;;;;;;;;16.52;37.98;91814.69;5052037;28;19944;-88
2023/03/07 11:04:25;;;;;;;;;;;;;;;16.55;37.80;91810.91;5056927;28;19925;-88
2023/03/07 11:06:54;;;;;;;;;;;;;;;16.58;38.02;91816.00;5023764;28;20264;-88
2023/03/07 11:09:24;;;;;;;;;;;;;;;16.59;38.31;91816.75;5034036;28;19935;-89
2023/03/07 11:11:49;;;;;;;;;;;;;;;16.61;38.59;91806.75;5032928;28;20007;-87
2023/03/07 11:14:15;;;;;;;;;;;;;;;16.66;38.37;91807.91;5058830;28;20378;-88
2023/03/07 11:16:47;;;;;;;;;;;;;;;16.70;38.49;91798.09;5029086;28;19932;-88
2023/03/07 11:19:23;;;;;;;;;;;;;;;16.72;38.62;91797.56;5038393;28;20011;-87
2023/03/07 11:21:53;;;;;;;;;;;;;;;16.71;38.69;91793.34;5029995;28;19929;-87
2023/03/07 11:24:21;;;;;;;;;;;;;;;16.71;38.97;91802.28;5045794;28;19936;-87
2023/03/07 11:26:47;;;;;;;;;;;;;;;16.72;38.86;91792.09;5056145;28;20081;-85
2023/03/07 11:29:13;;;;;;;;;;;;;;;16.72;38.65;91781.19;5026884;28;20408;-86
2023/03/07 11:31:41;;;;;;;;;;;;;;;16.69;39.06;91769.34;5066504;28;20237;-86
2023/03/07 11:34:26;;;;;;;;;;;;;;;16.70;38.91;91768.06;5060205;28;19968;-86
2023/03/07 11:36:56;;;;;;;;;;;;;;;16.70;38.75;91770.81;5040398;28;20392;-85
2023/03/07 11:39:35;;;;;;;;;;;;;;;16.71;38.80;91757.88;5037463;28;19920;-85
2023/03/07 11:42:04;;;;;;;;;;;;;;;16.72;38.93;91748.44;5063143;28;19928;-85
2023/03/07 11:44:40;;;;;;;;;;;;;;;16.72;39.22;91756.63;5038176;28;19933;-85
2023/03/07 11:47:05;;;;;;;;;;;;;;;16.73;39.59;91730.78;5053586;28;19925;-87
2023/03/07 11:49:36;;;;;;;;;;;;;;;16.74;38.92;91732.25;5040490;28;20004;-86
2023/03/07 11:52:01;;;;;;;;;;;;;;;16.75;39.08;91736.44;5067060;28;19931;-87
2023/03/07 11:54:34;;;;;;;;;;;;;;;16.74;38.99;91730.25;5046032;28;21192;-89
2023/03/07 11:57:03;;;;;;;;;;;;;;;16.74;39.23;91724.81;5044111;28;20018;-90
2023/03/07 11:59:41;;;;;;;;;;;;;;;16.78;39.17;91724.44;5046172;28;20534;-90
2023/03/07 12:02:24;;;;;;;;;;;;;;;16.81;39.04;91719.91;5048703;28;19931;-87
2023/03/07 12:04:56;;;;;;;;;;;;;;;16.79;38.94;91707.53;5038346;28;20545;-88
2023/03/07 12:07:38;;;;;;;;;;;;;;;16.81;39.07;91709.00;5023146;28;19933;-87
2023/03/07 12:10:15;;;;;;;;;;;;;;;16.81;39.23;91704.28;5045139;28;19925;-86
2023/03/07 12:12:50;;;;;;;;;;;;;;;16.84;39.37;91699.75;5061301;28;19924;-88
2023/03/07 12:15:29;;;;;;;;;;;;;;;16.85;39.50;91695.75;5067256;28;20270;-86
2023/03/07 12:18:03;;;;;;;;;;;;;;;16.85;39.42;91682.81;5069505;28;19928;-83
2023/03/07 12:20:34;;;;;;;;;;;;;;;16.84;39.29;91677.91;5079610;28;19935;-87
2023/03/07 12:22:59;;;;;;;;;;;;;;;16.83;39.06;91677.19;5072562;28;19974;-84
2023/03/07 12:25:32;;;;;;;;;;;;;;;16.83;39.27;91671.00;5092068;28;19932;-84
2023/03/07 12:28:16;;;;;;;;;;;;;;;16.83;39.05;91671.72;5052744;28;19924;-83
2023/03/07 12:31:02;;;;;;;;;;;;;;;16.82;39.25;91661.34;5033151;28;20023;-84
2023/03/07 12:33:42;;;;;;;;;;;;;;;16.82;39.12;91659.34;5089096;28;20683;-83
2023/03/07 12:36:08;;;;;;;;;;;;;;;16.80;38.96;91648.25;5074207;28;19939;-84
2023/03/07 12:38:42;;;;;;;;;;;;;;;16.81;39.08;91651.69;5067428;28;19946;-84
2023/03/07 12:41:11;;;;;;;;;;;;;;;16.82;39.18;91640.25;5068065;28;19928;-85
2023/03/07 12:43:38;;;;;;;;;;;;;;;16.86;39.45;91637.88;5087850;28;20370;-86
2023/03/07 12:46:12;;;;;;;;;;;;;;;16.86;38.97;91640.63;5059759;28;19925;-85
2023/03/07 12:48:55;;;;;;;;;;;;;;;16.86;39.13;91635.16;5068586;28;19924;-84